FMMI Airport Information

Runway Information
Runway 11 Length 10171 ft width 148 ft
Elevation 4197 ft Threshold 0 ft Heading 99
Runway 29 Length 10171 ft Width 148 ft
Elevation 4117 ft Threshold 0 ft Heading 279
Airport Frequencies
Type TWR Name TWR Frequency 120.1 MHZ
Airport Navaids
Type VOR-DME Name Ivato Frequency 114500 KHZ
Airport Weather Information & NOTAM
ADDS - METARS form results

(1832 UTC 17 July 2019)
Data provider http://aviationweather.gov/metar/data/
 
METAR text: FMMI 171830Z 13005KT 9999 FEW017 11/09 Q1029 NOSIG
Conditions at: FMMI (ANTANANARIVO/IVA, KM) observed 1830 UTC 17 July 2019
Temperature: 11.0°C (52°F)
Dewpoint: 9.0°C (48°F) [RH = 87%]
Pressure (altimeter): 30.38 inches Hg (1029.0 mb)
Winds: from the SE (130 degrees) at 6 MPH (5 knots; 2.6 m/s)
Visibility: 6 or more miles (10+ km)
Ceiling: at least 12,000 feet AGL
Clouds: few clouds at 1700 feet AGL
Weather: no significant weather observed at this time

METAR text: FMMI 171800Z 12007KT 9999 FEW017 11/09 Q1029 NOSIG
Conditions at: FMMI (ANTANANARIVO/IVA, KM) observed 1800 UTC 17 July 2019
Temperature: 11.0°C (52°F)
Dewpoint: 9.0°C (48°F) [RH = 87%]
Pressure (altimeter): 30.38 inches Hg (1029.0 mb)
Winds: from the ESE (120 degrees) at 8 MPH (7 knots; 3.6 m/s)
Visibility: 6 or more miles (10+ km)
Ceiling: at least 12,000 feet AGL
Clouds: few clouds at 1700 feet AGL
Weather: no significant weather observed at this time

Forecast for: FMMI (ANTANANARIVO/IVA, KM)
Text: TAF FMMI 171700Z 1718/1824 14010KT 9999 FEW010 BKN020
Forecast period: 1800 UTC 17 July 2019 to 0000 UTC 19 July 2019
Forecast type: FROM: standard forecast or significant change
Winds: from the SE (140 degrees) at 12 MPH (10 knots; 5.1 m/s)
Visibility: 6 or more miles 10+ km)
Ceiling: 2000 feet AGL
Clouds: few clouds at 1000 feet AGL
broken clouds at 2000 feet AGL
Weather: no significant weather forecast for this period
Text: PROB30
Forecast period: 1800 UTC 17 July 2019 to 0500 UTC 18 July 2019
Forecast type: TEMPORARY: The following changes expected for less than half the time period
Visibility: 2.80 miles (4.51 km)
Ceiling: unknown
Clouds: missing
Weather: DZ  (moderate drizzle)